Time;durP1;ratioP1;P1;durP2;ratioP2;P2;SDS_P1;SDS_P2;PMS_P1;PMS_P2;Temp;Humidity;BMP_temperature;BMP_pressure;BME280_temperature;BME280_humidity;BME280_pressure;Samples;Min_cycle;Max_cycle;Signal;HPM_P1;HPM_P2
2022/02/23 00:02:18;;;;;;;;;4.00;4.00;;;;;18.93;40.40;102106.44;5075672;28;45401;-55
2022/02/23 00:04:43;;;;;;;;;6.00;4.25;;;;;18.96;40.02;102114.28;5076429;27;47002;-52
2022/02/23 00:07:09;;;;;;;;;8.00;6.75;;;;;18.96;40.47;102114.28;5075445;28;45205;-52
2022/02/23 00:09:34;;;;;;;;;5.00;4.25;;;;;18.95;40.56;102118.69;5076633;27;45571;-56
2022/02/23 00:12:00;;;;;;;;;6.75;6.00;;;;;18.96;40.23;102119.53;5092406;27;45666;-55
2022/02/23 00:14:25;;;;;;;;;6.00;4.50;;;;;18.94;40.20;102114.34;5076096;27;45331;-55
2022/02/23 00:16:50;;;;;;;;;5.00;5.00;;;;;18.96;40.23;102116.91;5076656;27;45493;-56
2022/02/23 00:19:16;;;;;;;;;6.00;5.00;;;;;18.96;40.35;102119.53;5075268;28;45642;-56
2022/02/23 00:21:41;;;;;;;;;6.00;6.00;;;;;18.92;40.23;102118.75;5076763;27;45580;-56
2022/02/23 00:24:07;;;;;;;;;8.00;6.00;;;;;18.96;40.49;102130.06;5076194;27;46152;-55
2022/02/23 00:26:34;;;;;;;;;8.00;5.50;;;;;18.95;40.36;102121.31;5076321;27;45246;-57
2022/02/23 00:29:00;;;;;;;;;9.25;7.25;;;;;18.95;40.20;102121.31;5076418;27;45276;-55
2022/02/23 00:31:25;;;;;;;;;6.00;6.00;;;;;18.92;40.21;102112.59;5076619;27;45470;-54
2022/02/23 00:33:51;;;;;;;;;6.50;6.50;;;;;18.94;40.66;102121.34;5076559;28;46094;-53
2022/02/23 00:36:16;;;;;;;;;9.00;6.00;;;;;18.94;40.29;102116.97;5076907;27;45437;-56
2022/02/23 00:38:42;;;;;;;;;5.00;5.00;;;;;18.94;40.23;102113.47;5095590;27;45410;-56
2022/02/23 00:41:07;;;;;;;;;4.50;4.25;;;;;18.94;40.60;102116.97;5078734;27;45512;-54
2022/02/23 00:43:32;;;;;;;;;7.00;7.00;;;;;18.95;40.49;102116.06;5079549;27;46601;-53
2022/02/23 00:45:58;;;;;;;;;6.25;4.75;;;;;18.93;40.36;102111.72;5079623;28;45443;-55
2022/02/23 00:48:23;;;;;;;;;11.50;6.25;;;;;18.94;40.54;102113.47;5080004;27;45291;-55
2022/02/23 00:50:48;;;;;;;;;6.25;6.25;;;;;18.93;40.13;102117.88;5079845;27;45624;-55
2022/02/23 00:53:14;;;;;;;;;5.75;5.50;;;;;18.94;40.12;102123.97;5079384;27;46221;-58
2022/02/23 00:55:39;;;;;;;;;6.00;6.00;;;;;18.94;40.11;102121.34;5079324;27;45386;-53
2022/02/23 00:58:05;;;;;;;;;11.00;7.00;;;;;18.93;40.41;102120.50;5079778;27;45387;-55
2022/02/23 01:00:30;;;;;;;;;6.00;6.00;;;;;18.93;40.07;102116.97;5079862;27;45309;-54
2022/02/23 01:02:55;;;;;;;;;3.75;3.75;;;;;18.92;40.28;102117.88;5079697;27;46143;-52
2022/02/23 01:05:21;;;;;;;;;6.75;5.00;;;;;18.91;40.11;102118.75;5079457;27;45189;-55
2022/02/23 01:07:47;;;;;;;;;6.25;5.25;;;;;18.92;40.21;102125.75;5079340;27;45274;-55
2022/02/23 01:10:12;;;;;;;;;5.75;5.75;;;;;18.91;40.29;102121.38;5078310;28;45261;-56
2022/02/23 01:12:38;;;;;;;;;9.75;6.00;;;;;18.91;40.25;102129.28;5079123;27;46282;-56
2022/02/23 01:15:05;;;;;;;;;8.25;6.00;;;;;18.91;40.06;102137.16;5078968;27;45365;-55
2022/02/23 01:17:30;;;;;;;;;5.50;4.25;;;;;18.92;40.29;102138.88;5079305;27;45350;-54
2022/02/23 01:19:55;;;;;;;;;5.50;5.50;;;;;18.90;40.01;102127.56;5078441;28;45544;-55
2022/02/23 01:22:21;;;;;;;;;6.75;5.00;;;;;18.89;40.33;102125.84;5079038;27;45471;-57
2022/02/23 01:24:46;;;;;;;;;5.00;5.00;;;;;18.90;40.13;102131.06;5079114;27;45385;-54
2022/02/23 01:27:12;;;;;;;;;8.25;5.25;;;;;18.90;40.38;102122.31;5079565;27;45252;-56
2022/02/23 01:29:37;;;;;;;;;5.50;4.50;;;;;18.88;39.98;102129.38;5078215;27;45403;-53
2022/02/23 01:32:03;;;;;;;;;4.00;4.00;;;;;18.87;40.27;102135.53;5078116;27;45947;-57
2022/02/23 01:34:28;;;;;;;;;7.00;5.00;;;;;18.89;40.03;102131.94;5078981;27;45428;-51
2022/02/23 01:36:53;;;;;;;;;6.00;5.00;;;;;18.89;40.39;102136.38;5079679;27;45325;-56
2022/02/23 01:39:19;;;;;;;;;6.00;3.75;;;;;18.89;40.32;102137.22;5079430;27;45293;-55
2022/02/23 01:41:45;;;;;;;;;7.75;4.25;;;;;18.88;40.46;102134.63;5078840;27;45237;-54
2022/02/23 01:44:10;;;;;;;;;0.00;0.00;;;;;18.92;40.48;102137.13;5079100;27;45257;-53
2022/02/23 01:46:36;;;;;;;;;4.75;4.00;;;;;18.95;40.09;102141.47;5078970;27;45314;-52
2022/02/23 01:49:01;;;;;;;;;5.75;4.25;;;;;18.98;40.30;102144.00;5079073;27;45591;-53
2022/02/23 01:51:28;;;;;;;;;4.50;4.50;;;;;19.04;40.17;102145.59;5079210;27;46043;-55
2022/02/23 01:53:54;;;;;;;;;6.00;5.00;;;;;19.08;40.16;102148.09;5079151;27;45914;-54
2022/02/23 01:56:20;;;;;;;;;4.00;4.00;;;;;19.14;40.42;102145.28;5078835;27;45248;-55
2022/02/23 01:58:46;;;;;;;;;5.50;2.75;;;;;19.21;40.36;102145.97;5078950;27;45488;-53
2022/02/23 02:01:11;;;;;;;;;5.25;4.00;;;;;19.28;40.39;102146.66;5078632;27;45313;-55
2022/02/23 02:03:37;;;;;;;;;6.00;5.00;;;;;19.33;40.49;102147.41;5078515;27;45537;-55
2022/02/23 02:06:02;;;;;;;;;3.00;3.00;;;;;19.40;39.85;102148.09;5078659;27;45409;-54
2022/02/23 02:08:28;;;;;;;;;3.00;3.00;;;;;19.43;39.96;102159.38;5079094;27;45516;-56
2022/02/23 02:10:53;;;;;;;;;4.50;3.25;;;;;19.52;40.00;102163.47;5078650;27;45567;-53
2022/02/23 02:13:19;;;;;;;;;3.25;3.25;;;;;19.56;39.57;102149.34;5078383;27;45300;-55
2022/02/23 02:15:44;;;;;;;;;5.00;5.00;;;;;19.62;39.91;102162.28;5078333;27;45523;-53
2022/02/23 02:18:10;;;;;;;;;3.00;3.00;;;;;19.66;39.61;102168.34;5078746;27;45492;-54
2022/02/23 02:20:35;;;;;;;;;5.00;3.00;;;;;19.72;39.70;102165.50;5076955;28;45986;-55
2022/02/23 02:23:00;;;;;;;;;4.75;4.00;;;;;19.76;39.41;102169.78;5076969;27;45340;-57
2022/02/23 02:25:26;;;;;;;;;7.00;3.00;;;;;19.78;39.35;102170.59;5078823;27;45416;-53
2022/02/23 02:27:51;;;;;;;;;4.00;4.00;;;;;19.82;39.83;102158.19;5078597;27;45681;-53
2022/02/23 02:30:17;;;;;;;;;3.00;3.00;;;;;19.84;39.51;102166.03;5078099;27;45251;-55
2022/02/23 02:32:42;;;;;;;;;4.00;3.00;;;;;19.87;39.62;102155.47;5078129;27;45230;-54
2022/02/23 02:35:08;;;;;;;;;3.00;3.00;;;;;19.89;39.61;102161.53;5078175;27;45735;-54
2022/02/23 02:37:33;;;;;;;;;8.50;5.00;;;;;19.92;39.07;102166.69;5078420;27;45772;-54
2022/02/23 02:39:59;;;;;;;;;3.75;2.25;;;;;19.92;38.95;102169.31;5078277;27;46136;-54
2022/02/23 02:42:24;;;;;;;;;3.00;3.00;;;;;19.90;39.02;102160.59;5093804;27;45871;-55
2022/02/23 02:44:50;;;;;;;;;5.75;3.00;;;;;19.94;38.98;102167.50;5078027;27;45416;-54
2022/02/23 02:47:16;;;;;;;;;4.00;3.00;;;;;19.94;39.25;102156.97;5078207;27;45347;-52
2022/02/23 02:49:41;;;;;;;;;4.25;3.00;;;;;19.97;38.71;102158.63;5077777;27;45404;-54
2022/02/23 02:52:07;;;;;;;;;4.50;4.50;;;;;19.97;39.30;102164.78;5077694;27;45373;-52
2022/02/23 02:54:32;;;;;;;;;3.50;2.00;;;;;19.98;38.97;102163.00;5077926;27;45424;-53
2022/02/23 02:56:57;;;;;;;;;4.25;2.75;;;;;19.98;38.83;102161.25;5078391;27;45318;-54
2022/02/23 02:59:23;;;;;;;;;2.75;2.75;;;;;19.97;39.15;102154.25;5076591;27;46152;-53
2022/02/23 03:01:48;;;;;;;;;2.50;2.50;;;;;19.98;38.87;102158.59;5077648;27;45333;-53
2022/02/23 03:04:14;;;;;;;;;2.50;1.00;;;;;19.96;39.24;102160.41;5077820;27;45223;-55
2022/02/23 03:06:39;;;;;;;;;3.75;3.00;;;;;19.97;38.92;102170.03;5077974;27;45580;-55
2022/02/23 03:09:07;;;;;;;;;3.25;3.00;;;;;19.98;38.98;102161.25;5077499;28;45516;-55
2022/02/23 03:11:33;;;;;;;;;3.50;3.50;;;;;19.98;39.09;102161.25;5078027;27;45787;-49
2022/02/23 03:13:59;;;;;;;;;5.75;4.00;;;;;19.96;38.53;102160.41;5077879;27;45449;-55
2022/02/23 03:16:24;;;;;;;;;3.25;3.00;;;;;19.97;38.76;102158.63;5077666;27;45523;-52
2022/02/23 03:18:49;;;;;;;;;2.75;2.25;;;;;19.95;38.86;102166.59;5077479;27;45323;-55
2022/02/23 03:21:15;;;;;;;;;4.50;2.00;;;;;19.96;38.88;102168.31;5077361;27;45357;-55
2022/02/23 03:23:40;;;;;;;;;3.50;3.50;;;;;19.93;38.99;102161.38;5077496;27;45303;-52
2022/02/23 03:26:09;;;;;;;;;3.50;3.00;;;;;19.95;38.61;102173.63;5077571;27;45463;-54
2022/02/23 03:28:35;;;;;;;;;2.00;2.00;;;;;19.93;39.02;102171.91;5077286;27;46062;-54
2022/02/23 03:31:00;;;;;;;;;2.00;2.00;;;;;19.90;38.74;102166.75;5076539;27;45618;-55
2022/02/23 03:33:26;;;;;;;;;4.00;4.00;;;;;19.92;39.00;102171.94;5077550;27;45435;-54
2022/02/23 03:35:51;;;;;;;;;4.50;4.25;;;;;19.89;38.61;102172.06;5077404;27;45298;-55
2022/02/23 03:38:16;;;;;;;;;6.75;2.75;;;;;19.91;38.46;102175.47;5077050;27;45503;-55
2022/02/23 03:40:42;;;;;;;;;4.00;2.25;;;;;19.88;38.90;102172.97;5077287;27;45222;-54
2022/02/23 03:43:08;;;;;;;;;3.25;3.00;;;;;19.88;39.20;102175.59;5077283;27;45421;-55
2022/02/23 03:45:34;;;;;;;;;3.00;2.00;;;;;19.88;38.73;102180.88;5077551;27;45523;-50
2022/02/23 03:48:00;;;;;;;;;2.50;2.50;;;;;19.87;38.66;102179.97;5077343;27;45989;-55
2022/02/23 03:50:26;;;;;;;;;6.25;3.50;;;;;19.85;38.75;102176.50;5077157;27;45381;-55
2022/02/23 03:52:52;;;;;;;;;4.00;3.00;;;;;19.85;39.43;102171.25;5077299;27;45364;-53
2022/02/23 03:55:17;;;;;;;;;7.00;3.50;;;;;19.84;39.12;102176.56;5077284;27;45562;-55
2022/02/23 03:57:43;;;;;;;;;2.50;2.50;;;;;19.82;39.03;102170.47;5077008;27;45387;-56
2022/02/23 04:00:12;;;;;;;;;2.00;2.00;;;;;19.84;38.57;102173.94;5076975;27;45516;-54
2022/02/23 04:02:38;;;;;;;;;2.25;2.25;;;;;19.82;39.04;102174.00;5077064;27;45231;-52
2022/02/23 04:05:06;;;;;;;;;3.75;2.00;;;;;19.80;39.25;102174.91;5077390;27;45571;-54
2022/02/23 04:07:32;;;;;;;;;5.50;3.00;;;;;19.80;38.64;102178.44;5076860;27;45513;-54
2022/02/23 04:09:57;;;;;;;;;4.25;4.25;;;;;19.80;39.04;102169.66;5076524;28;45381;-54
2022/02/23 04:12:24;;;;;;;;;3.00;2.00;;;;;19.76;39.17;102164.50;5076808;27;45279;-56
2022/02/23 04:14:49;;;;;;;;;2.00;2.00;;;;;19.78;39.08;102164.47;5076540;27;45344;-56
2022/02/23 04:17:14;;;;;;;;;5.00;3.00;;;;;19.78;39.22;102162.69;5075191;28;47208;-58
2022/02/23 04:19:40;;;;;;;;;5.00;2.00;;;;;19.79;39.08;102171.44;5075120;28;46451;-55
2022/02/23 04:22:06;;;;;;;;;2.25;2.25;;;;;19.77;38.98;102165.34;5077033;27;45346;-57
2022/02/23 04:24:31;;;;;;;;;3.00;2.00;;;;;19.75;38.97;102168.06;5077180;27;45216;-55
2022/02/23 04:26:57;;;;;;;;;2.00;2.00;;;;;19.75;38.81;102162.78;5076387;27;46047;-53
2022/02/23 04:29:22;;;;;;;;;3.25;3.00;;;;;19.75;39.27;102164.53;5076464;27;45280;-55
2022/02/23 04:31:48;;;;;;;;;2.50;2.00;;;;;19.73;39.16;102156.72;5076644;27;45242;-56
2022/02/23 04:34:14;;;;;;;;;2.00;2.00;;;;;19.73;39.03;102161.13;5076769;27;45220;-55
2022/02/23 04:36:39;;;;;;;;;2.00;2.00;;;;;19.71;39.33;102163.78;5074982;28;46503;-57
2022/02/23 04:39:05;;;;;;;;;2.75;2.50;;;;;19.68;39.25;102153.34;5075254;28;45793;-54
2022/02/23 04:41:30;;;;;;;;;4.00;2.00;;;;;19.70;39.15;102159.44;5076503;28;45448;-56
2022/02/23 04:43:56;;;;;;;;;6.25;4.50;;;;;19.70;39.05;102167.31;5076571;27;45443;-56
2022/02/23 04:46:21;;;;;;;;;3.00;3.00;;;;;19.68;39.21;102169.13;5076163;27;45421;-54
2022/02/23 04:48:48;;;;;;;;;5.25;2.00;;;;;19.67;39.27;102172.69;5076290;27;45461;-56
2022/02/23 04:51:13;;;;;;;;;2.75;2.00;;;;;19.67;39.29;102175.31;5076611;27;45341;-55
2022/02/23 04:53:39;;;;;;;;;3.75;2.75;;;;;19.65;39.07;102174.50;5076415;27;45532;-56
2022/02/23 04:56:06;;;;;;;;;4.50;2.50;;;;;19.64;39.30;102167.50;5076390;27;46636;-55
2022/02/23 04:58:32;;;;;;;;;6.25;2.75;;;;;19.63;39.26;102161.38;5076138;27;45369;-53
2022/02/23 05:00:57;;;;;;;;;2.00;2.00;;;;;19.61;39.17;102168.47;5074889;27;45267;-55
2022/02/23 05:03:23;;;;;;;;;2.75;2.00;;;;;19.60;39.23;102171.13;5076440;27;45231;-54
2022/02/23 05:05:49;;;;;;;;;2.50;2.50;;;;;19.58;39.17;102168.56;5075636;27;51884;-56
2022/02/23 05:08:16;;;;;;;;;4.50;2.00;;;;;19.58;39.26;102172.94;5075900;27;45888;-56
2022/02/23 05:10:42;;;;;;;;;3.50;2.00;;;;;19.56;39.33;102177.41;5076195;27;45412;-54
2022/02/23 05:13:08;;;;;;;;;5.25;2.25;;;;;19.56;39.02;102169.53;5076508;27;45424;-57
2022/02/23 05:15:33;;;;;;;;;2.25;1.75;;;;;19.54;38.90;102163.44;5075829;27;45663;-55
2022/02/23 05:17:59;;;;;;;;;1.00;1.00;;;;;19.53;39.31;102156.47;5075834;27;45361;-55
2022/02/23 05:20:24;;;;;;;;;3.00;1.50;;;;;19.54;39.49;102171.34;5075967;27;45503;-56
2022/02/23 05:22:50;;;;;;;;;5.00;4.50;;;;;19.50;39.06;102165.31;5077610;27;45476;-56
2022/02/23 05:25:16;;;;;;;;;4.00;3.25;;;;;19.50;39.01;102170.56;5079155;27;46021;-53
2022/02/23 05:27:42;;;;;;;;;5.00;2.50;;;;;19.52;38.98;102173.16;5079232;27;45326;-54
2022/02/23 05:30:08;;;;;;;;;5.00;2.00;;;;;19.51;39.16;102163.53;5079619;27;45287;-54
2022/02/23 05:32:35;;;;;;;;;2.75;2.75;;;;;19.50;38.92;102169.69;5079445;27;45390;-56
2022/02/23 05:35:00;;;;;;;;;3.00;2.25;;;;;19.51;39.46;102180.19;5079039;27;46559;-54
2022/02/23 05:37:25;;;;;;;;;1.50;1.25;;;;;19.47;39.11;102182.03;5079044;27;45453;-57
2022/02/23 05:39:51;;;;;;;;;2.00;2.00;;;;;19.49;39.50;102178.47;5079143;27;45322;-56
2022/02/23 05:42:16;;;;;;;;;1.00;1.00;;;;;19.49;38.97;102186.38;5079326;27;45495;-54
2022/02/23 05:44:41;;;;;;;;;2.50;2.25;;;;;19.48;39.34;102182.91;5094681;27;47342;-56
2022/02/23 05:47:07;;;;;;;;;3.25;3.00;;;;;19.46;39.64;102193.44;5077947;27;45334;-56
2022/02/23 05:49:32;;;;;;;;;2.75;2.25;;;;;19.45;38.97;102189.13;5079001;27;45339;-55
2022/02/23 05:51:58;;;;;;;;;6.00;2.00;;;;;19.45;39.01;102189.13;5079121;27;45502;-55
2022/02/23 05:54:23;;;;;;;;;2.50;2.50;;;;;19.45;38.99;102190.88;5078740;27;46471;-53
2022/02/23 05:56:48;;;;;;;;;2.25;2.25;;;;;19.44;39.08;102191.78;5078724;27;45421;-56
2022/02/23 05:59:15;;;;;;;;;1.50;1.50;;;;;19.43;39.34;102196.19;5094733;27;45400;-52
2022/02/23 06:01:40;;;;;;;;;2.75;2.75;;;;;19.43;39.32;102192.66;5079473;27;45593;-53
2022/02/23 06:04:05;;;;;;;;;3.50;3.50;;;;;19.41;39.00;102190.09;5078882;27;45606;-56
2022/02/23 06:06:31;;;;;;;;;2.00;2.00;;;;;19.42;38.90;102194.47;5078842;27;45413;-55
2022/02/23 06:08:57;;;;;;;;;2.00;2.00;;;;;19.42;39.32;102199.72;5078779;27;45815;-56
2022/02/23 06:11:22;;;;;;;;;2.00;2.00;;;;;19.39;39.34;102194.53;5079011;27;45306;-54
2022/02/23 06:13:51;;;;;;;;;3.00;2.00;;;;;19.39;39.29;102194.53;5078567;27;45323;-54
2022/02/23 06:16:24;;;;;;;;;4.75;2.50;;;;;19.39;39.36;102194.53;5078196;27;45949;-56
2022/02/23 06:18:54;;;;;;;;;3.00;1.75;;;;;19.38;39.43;102200.69;5078526;27;45380;-54
2022/02/23 06:21:20;;;;;;;;;4.00;2.75;;;;;19.38;38.98;102198.06;5078798;27;45388;-55
2022/02/23 06:23:46;;;;;;;;;3.00;3.00;;;;;19.37;38.96;102196.34;5078362;27;46033;-53
2022/02/23 06:26:12;;;;;;;;;3.00;2.25;;;;;19.34;39.33;102196.44;5078366;28;45409;-54
2022/02/23 06:28:38;;;;;;;;;4.75;3.00;;;;;19.35;39.47;102198.16;5078624;28;45326;-56
2022/02/23 06:31:04;;;;;;;;;7.00;4.00;;;;;19.34;39.20;102204.34;5078571;27;45247;-55
2022/02/23 06:33:29;;;;;;;;;3.25;2.00;;;;;19.34;39.14;102204.34;5078127;27;45439;-55
2022/02/23 06:35:55;;;;;;;;;5.00;2.00;;;;;19.32;39.24;102206.16;5077982;27;45528;-53
2022/02/23 06:38:21;;;;;;;;;1.75;1.00;;;;;19.32;39.48;102214.03;5078084;27;45306;-55
2022/02/23 06:40:48;;;;;;;;;4.00;2.00;;;;;19.31;39.52;102212.31;5078441;27;45452;-52
2022/02/23 06:43:15;;;;;;;;;3.25;3.00;;;;;19.31;39.17;102218.41;5077800;27;46173;-54
2022/02/23 06:45:44;;;;;;;;;4.25;3.25;;;;;19.30;39.29;102221.09;5078384;27;45283;-54
2022/02/23 06:48:09;;;;;;;;;3.00;3.00;;;;;19.29;39.56;102224.63;5077214;28;45441;-55
2022/02/23 06:50:35;;;;;;;;;1.25;1.25;;;;;19.28;39.36;102226.41;5078234;27;45595;-55
2022/02/23 06:53:00;;;;;;;;;5.75;2.75;;;;;19.29;39.57;102235.97;5077749;27;45458;-54
2022/02/23 06:55:26;;;;;;;;;5.75;3.00;;;;;19.29;39.61;102229.88;5077728;27;45440;-57
2022/02/23 06:57:51;;;;;;;;;3.25;3.00;;;;;19.26;39.21;102225.56;5077952;27;45403;-54
2022/02/23 07:00:17;;;;;;;;;3.00;1.75;;;;;19.27;38.97;102229.94;5078052;27;45495;-56
2022/02/23 07:02:43;;;;;;;;;4.25;2.00;;;;;19.28;39.48;102238.66;5077971;27;46111;-55
2022/02/23 07:05:09;;;;;;;;;4.00;4.00;;;;;19.28;39.23;102238.66;5077691;27;45365;-55
2022/02/23 07:07:34;;;;;;;;;5.25;2.00;;;;;19.26;39.58;102237.84;5077941;28;45299;-53
2022/02/23 07:09:59;;;;;;;;;4.00;2.00;;;;;19.25;39.46;102234.38;5077923;28;45240;-53
2022/02/23 07:12:25;;;;;;;;;1.00;1.00;;;;;19.26;39.55;102240.47;5077429;27;46208;-52
2022/02/23 07:14:50;;;;;;;;;5.00;2.50;;;;;19.26;39.49;102240.47;5077438;27;45421;-55
2022/02/23 07:17:16;;;;;;;;;3.00;3.00;;;;;19.26;39.60;102240.47;5076283;27;45267;-51
2022/02/23 07:19:41;;;;;;;;;3.00;2.00;;;;;19.23;39.23;102232.69;5078106;27;45214;-51
2022/02/23 07:22:07;;;;;;;;;2.25;2.25;;;;;19.24;39.48;102248.41;5077364;27;46320;-56
2022/02/23 07:24:35;;;;;;;;;3.00;2.00;;;;;19.24;39.21;102248.41;5077236;27;45440;-51
2022/02/23 07:27:00;;;;;;;;;4.50;1.75;;;;;19.24;39.12;102234.38;5077347;27;45389;-54
2022/02/23 07:29:26;;;;;;;;;7.75;2.00;;;;;19.23;39.55;102245.84;5077472;27;45470;-53
2022/02/23 07:31:51;;;;;;;;;4.25;2.00;;;;;19.23;39.55;102248.47;5077166;28;45486;-53
2022/02/23 07:34:18;;;;;;;;;3.25;2.25;;;;;19.22;39.43;102244.09;5077278;27;45469;-55
2022/02/23 07:36:44;;;;;;;;;4.25;3.00;;;;;19.23;39.21;102251.09;5077613;27;45385;-54
2022/02/23 07:39:10;;;;;;;;;3.00;3.00;;;;;19.22;39.26;102247.59;5077570;27;45538;-53
2022/02/23 07:41:35;;;;;;;;;3.00;3.00;;;;;19.21;39.29;102242.38;5076976;27;45447;-54
2022/02/23 07:44:01;;;;;;;;;4.00;3.25;;;;;19.22;39.22;102241.47;5077019;27;45294;-54
2022/02/23 07:46:27;;;;;;;;;2.50;2.00;;;;;19.22;39.54;102249.38;5076788;27;45253;-54
2022/02/23 07:48:58;;;;;;;;;3.00;3.00;;;;;19.23;39.39;102251.09;5077388;27;45461;-53
2022/02/23 07:51:24;;;;;;;;;2.00;2.00;;;;;19.23;39.27;102251.94;5075938;28;46190;-55
2022/02/23 07:53:52;;;;;;;;;4.75;2.50;;;;;19.21;39.03;102252.88;5077113;27;45369;-54
2022/02/23 07:56:18;;;;;;;;;2.00;2.00;;;;;19.23;39.62;102253.72;5076983;27;46124;-53
2022/02/23 07:58:44;;;;;;;;;4.00;2.50;;;;;19.22;39.14;102252.00;5076380;27;45354;-53
2022/02/23 08:01:28;;;;;;;;;2.50;2.50;;;;;19.22;39.44;102249.38;5076795;27;46583;-51
2022/02/23 08:03:54;;;;;;;;;3.50;2.00;;;;;19.22;39.13;102249.38;5076977;27;45262;-53
2022/02/23 08:06:19;;;;;;;;;1.75;1.75;;;;;19.22;39.08;102252.84;5058757;28;45385;-53
2022/02/23 08:08:45;;;;;;;;;2.00;2.00;;;;;19.24;39.57;102255.41;5077304;27;45358;-53
2022/02/23 08:11:10;;;;;;;;;2.25;2.25;;;;;19.22;39.41;102249.38;5076554;27;46330;-52
2022/02/23 08:13:36;;;;;;;;;3.50;3.00;;;;;19.22;39.47;102254.63;5075304;27;45758;-54
2022/02/23 08:21:30;;;;;;;;;2.25;2.00;;;;;19.21;39.62;102252.88;5076623;28;45541;-52
2022/02/23 08:23:55;;;;;;;;;4.50;3.50;;;;;19.22;39.61;102252.00;5076454;27;45370;-53
2022/02/23 08:26:20;;;;;;;;;3.50;3.50;;;;;19.21;39.38;102252.88;5076636;27;45377;-52
2022/02/23 08:28:46;;;;;;;;;7.00;2.75;;;;;19.20;39.52;102256.41;5077122;27;45260;-53
2022/02/23 08:31:11;;;;;;;;;3.50;3.00;;;;;19.22;39.38;102254.63;5076332;27;46255;-53
2022/02/23 08:33:38;;;;;;;;;2.25;2.25;;;;;19.21;39.38;102261.63;5076134;27;47557;-53
2022/02/23 08:36:04;;;;;;;;;3.25;2.50;;;;;19.21;39.51;102266.88;5076399;27;45531;-52
2022/02/23 08:38:29;;;;;;;;;3.50;2.25;;;;;19.22;39.09;102259.88;5076438;27;45556;-54
2022/02/23 08:40:55;;;;;;;;;2.00;2.00;;;;;19.23;39.57;102266.84;5076345;27;45367;-52
2022/02/23 08:43:20;;;;;;;;;5.50;4.00;;;;;19.21;39.67;102266.88;5075015;28;45281;-51
2022/02/23 08:45:46;;;;;;;;;5.00;3.00;;;;;19.22;39.54;102273.88;5076803;27;45295;-53
2022/02/23 08:48:11;;;;;;;;;3.00;2.00;;;;;19.23;39.12;102274.75;5076336;27;45164;-52
2022/02/23 08:50:37;;;;;;;;;3.50;3.50;;;;;19.22;39.48;102271.25;5076162;28;45565;-51
2022/02/23 08:53:03;;;;;;;;;5.00;3.00;;;;;19.22;39.44;102281.75;5076144;28;45322;-55
2022/02/23 08:55:29;;;;;;;;;2.00;2.00;;;;;19.22;39.07;102278.28;5076396;27;45380;-54
2022/02/23 08:57:55;;;;;;;;;4.00;3.00;;;;;19.21;39.39;102279.19;5078191;27;45574;-51
2022/02/23 09:00:21;;;;;;;;;3.00;2.50;;;;;19.22;39.31;102273.03;5079628;27;45496;-55
2022/02/23 09:02:46;;;;;;;;;3.75;3.00;;;;;19.22;39.38;102275.66;5080043;27;45405;-52
2022/02/23 09:05:12;;;;;;;;;5.50;2.50;;;;;19.21;39.54;102274.75;5079796;27;45384;-55
2022/02/23 09:07:37;;;;;;;;;3.00;3.00;;;;;19.23;39.10;102266.84;5080054;27;45393;-56
2022/02/23 09:10:03;;;;;;;;;3.50;2.00;;;;;19.21;39.08;102263.41;5079489;27;45375;-57
2022/02/23 09:12:28;;;;;;;;;3.00;3.00;;;;;19.21;39.22;102256.38;5079599;27;45410;-55
2022/02/23 09:14:54;;;;;;;;;3.75;3.00;;;;;19.22;39.17;102265.13;5079451;27;45503;-55
2022/02/23 09:17:20;;;;;;;;;5.50;4.00;;;;;19.21;39.43;102263.41;5095840;27;45533;-54
2022/02/23 09:19:46;;;;;;;;;3.50;3.00;;;;;19.21;38.97;102264.25;5079866;27;45348;-54
2022/02/23 09:22:12;;;;;;;;;5.75;3.25;;;;;19.20;39.48;102252.00;5079481;27;45351;-55
2022/02/23 09:24:37;;;;;;;;;3.00;3.00;;;;;19.22;39.20;102262.50;5079516;27;45375;-55
2022/02/23 09:27:03;;;;;;;;;4.75;3.00;;;;;19.21;39.47;102251.09;5079538;27;45528;-56
2022/02/23 09:29:33;;;;;;;;;5.75;4.00;;;;;19.25;39.12;102259.78;5079117;27;46095;-55
2022/02/23 09:31:59;;;;;;;;;4.25;4.00;;;;;19.25;39.08;102244.00;5079247;27;45279;-56
2022/02/23 09:34:24;;;;;;;;;5.00;3.25;;;;;19.24;39.01;102242.28;5077998;28;45311;-55
2022/02/23 09:36:51;;;;;;;;;4.00;3.00;;;;;19.25;39.35;102246.63;5079526;27;45636;-52
2022/02/23 09:39:18;;;;;;;;;3.00;3.00;;;;;19.27;39.38;102244.81;5079240;28;46746;-54
2022/02/23 09:41:45;;;;;;;;;6.00;4.00;;;;;19.27;38.88;102248.34;5094837;27;45835;-54
2022/02/23 09:44:11;;;;;;;;;3.50;3.50;;;;;19.26;39.22;102237.84;5079098;27;45440;-51
2022/02/23 09:46:36;;;;;;;;;2.75;2.75;;;;;19.27;39.38;102236.94;5079060;27;45432;-52
2022/02/23 09:49:03;;;;;;;;;3.00;2.00;;;;;19.27;39.27;102239.56;5078891;27;46705;-52
2022/02/23 09:51:28;;;;;;;;;3.00;2.50;;;;;19.27;39.00;102242.19;5078738;27;45939;-56
2022/02/23 09:53:55;;;;;;;;;5.00;3.25;;;;;19.27;39.07;102231.69;5077662;27;45332;-53
2022/02/23 09:56:21;;;;;;;;;1.25;1.25;;;;;19.27;38.99;102226.44;5079302;27;45362;-54
2022/02/23 09:58:48;;;;;;;;;3.75;2.25;;;;;19.28;39.07;102230.78;5078510;27;46085;-53
2022/02/23 10:01:14;;;;;;;;;6.25;4.50;;;;;19.27;39.05;102221.16;5078530;27;45954;-54
2022/02/23 10:03:43;;;;;;;;;5.50;3.75;;;;;19.27;38.96;102221.16;5094474;27;45460;-54
2022/02/23 10:06:20;;;;;;;;;3.00;3.00;;;;;19.27;39.27;102210.66;5078776;27;45358;-56
2022/02/23 10:08:45;;;;;;;;;4.00;2.50;;;;;19.26;39.06;102214.19;5078000;27;46107;-54
2022/02/23 10:11:18;;;;;;;;;2.50;2.50;;;;;19.28;39.10;102212.38;5078424;28;45258;-55
2022/02/23 10:13:51;;;;;;;;;4.50;4.00;;;;;19.29;39.07;102214.09;5078513;27;45406;-54
2022/02/23 10:16:16;;;;;;;;;3.50;3.50;;;;;19.29;39.09;102211.47;5078425;27;45424;-52
2022/02/23 10:18:42;;;;;;;;;6.75;3.75;;;;;19.28;38.94;102202.75;5077109;27;45561;-54
2022/02/23 10:21:07;;;;;;;;;2.75;2.75;;;;;19.29;39.44;102207.06;5078339;27;45272;-52
2022/02/23 10:23:33;;;;;;;;;3.50;2.00;;;;;19.27;38.94;102203.66;5077154;27;45459;-55
2022/02/23 10:26:05;;;;;;;;;3.25;3.25;;;;;19.29;39.07;102206.22;5078509;27;45321;-51
2022/02/23 10:28:34;;;;;;;;;3.50;3.00;;;;;19.29;38.88;102206.22;5077983;27;46401;-56
2022/02/23 10:31:07;;;;;;;;;4.50;3.00;;;;;19.29;39.20;102207.06;5078157;27;45853;-53
2022/02/23 10:33:36;;;;;;;;;6.00;4.25;;;;;19.30;38.78;102208.78;5078489;27;45530;-54
2022/02/23 10:36:05;;;;;;;;;3.75;2.25;;;;;19.31;38.75;102205.25;5077102;28;45263;-53
2022/02/23 10:38:31;;;;;;;;;3.75;3.00;;;;;19.32;38.68;102203.50;5078059;27;46425;-51
2022/02/23 10:41:02;;;;;;;;;4.00;3.00;;;;;19.30;39.02;102203.53;5078074;27;45337;-54
2022/02/23 10:43:36;;;;;;;;;3.50;3.50;;;;;19.30;38.83;102206.16;5078100;27;45285;-52
2022/02/23 10:46:13;;;;;;;;;1.50;1.50;;;;;19.31;38.57;102201.78;5078269;27;45283;-55
2022/02/23 10:48:55;;;;;;;;;2.75;2.75;;;;;19.31;38.76;102197.38;5077697;27;46523;-55
2022/02/23 10:51:23;;;;;;;;;5.00;3.00;;;;;19.31;38.81;102197.38;5078154;27;45907;-54
2022/02/23 10:53:51;;;;;;;;;5.00;4.00;;;;;19.32;38.49;102198.25;5077931;28;45444;-54
2022/02/23 10:56:37;;;;;;;;;5.75;4.25;;;;;19.31;38.77;102191.28;5077948;27;45567;-51
2022/02/23 10:59:15;;;;;;;;;4.50;4.00;;;;;19.30;38.97;102184.28;5077602;27;46398;-53
2022/02/23 11:01:43;;;;;;;;;4.75;2.00;;;;;19.31;38.65;102184.22;5076253;27;45813;-53
2022/02/23 11:04:09;;;;;;;;;2.25;2.00;;;;;19.30;38.76;102187.75;5076491;28;45165;-55
2022/02/23 11:06:35;;;;;;;;;3.00;2.25;;;;;19.31;38.89;102180.75;5077929;28;45556;-51
2022/02/23 11:09:03;;;;;;;;;5.00;4.00;;;;;19.30;38.62;102179.03;5077309;27;45525;-55
2022/02/23 11:11:29;;;;;;;;;3.75;2.50;;;;;19.31;38.87;102183.38;5077492;27;45790;-54
2022/02/23 11:13:56;;;;;;;;;3.00;3.00;;;;;19.29;38.66;102179.94;5077797;27;45347;-53
2022/02/23 11:16:23;;;;;;;;;2.75;2.75;;;;;19.29;38.56;102177.31;5078023;27;46111;-53
2022/02/23 11:18:49;;;;;;;;;2.00;2.00;;;;;19.28;38.47;102170.31;5077312;28;45256;-50
2022/02/23 11:21:17;;;;;;;;;5.25;4.00;;;;;19.30;38.59;102173.78;5076389;27;45929;-54
2022/02/23 11:23:44;;;;;;;;;0.25;0.25;;;;;19.31;38.44;102170.25;5077312;27;45305;-50
2022/02/23 11:26:13;;;;;;;;;2.75;2.00;;;;;19.27;38.50;102158.97;5077559;27;45526;-52